sensor_id;sensor_type;location;lat;lon;timestamp;temperature;humidity
19813;DHT22;10066;48.108;11.448;2022-11-09T00:00:04;6.40;99.90
19813;DHT22;10066;48.108;11.448;2022-11-09T00:02:31;6.40;99.90
19813;DHT22;10066;48.108;11.448;2022-11-09T00:05:00;6.40;99.90
19813;DHT22;10066;48.108;11.448;2022-11-09T00:07:29;6.30;99.90
19813;DHT22;10066;48.108;11.448;2022-11-09T00:09:56;6.30;99.90
19813;DHT22;10066;48.108;11.448;2022-11-09T00:12:23;6.30;99.90
19813;DHT22;10066;48.108;11.448;2022-11-09T00:14:50;6.30;99.90
19813;DHT22;10066;48.108;11.448;2022-11-09T00:17:17;6.30;99.90
19813;DHT22;10066;48.108;11.448;2022-11-09T00:19:43;6.30;99.90
19813;DHT22;10066;48.108;11.448;2022-11-09T00:22:12;6.30;99.90
19813;DHT22;10066;48.108;11.448;2022-11-09T00:24:39;6.30;99.90
19813;DHT22;10066;48.108;11.448;2022-11-09T00:27:06;6.30;99.90
19813;DHT22;10066;48.108;11.448;2022-11-09T00:29:33;6.30;99.90
19813;DHT22;10066;48.108;11.448;2022-11-09T00:32:00;6.30;99.90
19813;DHT22;10066;48.108;11.448;2022-11-09T00:34:27;6.20;99.90
19813;DHT22;10066;48.108;11.448;2022-11-09T00:36:54;6.20;99.90
19813;DHT22;10066;48.108;11.448;2022-11-09T00:39:22;6.20;99.90
19813;DHT22;10066;48.108;11.448;2022-11-09T00:41:49;6.20;99.90
19813;DHT22;10066;48.108;11.448;2022-11-09T00:44:16;6.20;99.90
19813;DHT22;10066;48.108;11.448;2022-11-09T00:46:43;6.10;99.90
19813;DHT22;10066;48.108;11.448;2022-11-09T00:49:10;6.10;99.90
19813;DHT22;10066;48.108;11.448;2022-11-09T00:51:37;6.10;99.90
19813;DHT22;10066;48.108;11.448;2022-11-09T00:54:05;6.10;99.90
19813;DHT22;10066;48.108;11.448;2022-11-09T00:56:34;6.10;99.90
19813;DHT22;10066;48.108;11.448;2022-11-09T00:59:01;6.00;99.90
19813;DHT22;10066;48.108;11.448;2022-11-09T01:01:28;6.00;99.90
19813;DHT22;10066;48.108;11.448;2022-11-09T01:03:55;6.00;99.90
19813;DHT22;10066;48.108;11.448;2022-11-09T01:06:23;5.90;99.90
19813;DHT22;10066;48.108;11.448;2022-11-09T01:08:51;5.90;99.90
19813;DHT22;10066;48.108;11.448;2022-11-09T01:11:20;5.90;99.90
19813;DHT22;10066;48.108;11.448;2022-11-09T01:13:49;5.90;99.90
19813;DHT22;10066;48.108;11.448;2022-11-09T01:16:20;5.90;99.90
19813;DHT22;10066;48.108;11.448;2022-11-09T01:18:47;5.80;99.90
19813;DHT22;10066;48.108;11.448;2022-11-09T01:21:14;5.80;99.90
19813;DHT22;10066;48.108;11.448;2022-11-09T01:23:41;5.80;99.90
19813;DHT22;10066;48.108;11.448;2022-11-09T01:26:10;5.80;99.90
19813;DHT22;10066;48.108;11.448;2022-11-09T01:28:38;5.80;99.90
19813;DHT22;10066;48.108;11.448;2022-11-09T01:31:10;5.80;99.90
19813;DHT22;10066;48.108;11.448;2022-11-09T01:33:37;5.80;99.90
19813;DHT22;10066;48.108;11.448;2022-11-09T01:36:06;5.80;99.90
19813;DHT22;10066;48.108;11.448;2022-11-09T01:38:35;5.80;99.90
19813;DHT22;10066;48.108;11.448;2022-11-09T01:41:02;5.80;99.90
19813;DHT22;10066;48.108;11.448;2022-11-09T01:43:29;5.70;99.90
19813;DHT22;10066;48.108;11.448;2022-11-09T01:45:59;5.70;99.90
19813;DHT22;10066;48.108;11.448;2022-11-09T01:48:33;5.70;99.90
19813;DHT22;10066;48.108;11.448;2022-11-09T01:51:07;5.60;99.90
19813;DHT22;10066;48.108;11.448;2022-11-09T01:53:38;5.60;99.90
19813;DHT22;10066;48.108;11.448;2022-11-09T01:56:08;5.60;99.90
19813;DHT22;10066;48.108;11.448;2022-11-09T01:58:42;5.60;99.90
19813;DHT22;10066;48.108;11.448;2022-11-09T02:01:09;5.60;99.90
19813;DHT22;10066;48.108;11.448;2022-11-09T02:03:43;5.50;99.90
19813;DHT22;10066;48.108;11.448;2022-11-09T02:06:13;5.50;99.90
19813;DHT22;10066;48.108;11.448;2022-11-09T02:08:41;5.50;99.90
19813;DHT22;10066;48.108;11.448;2022-11-09T02:11:10;5.50;99.90
19813;DHT22;10066;48.108;11.448;2022-11-09T02:13:40;5.50;99.90
19813;DHT22;10066;48.108;11.448;2022-11-09T02:16:10;5.50;99.90
19813;DHT22;10066;48.108;11.448;2022-11-09T02:18:43;5.50;99.90
19813;DHT22;10066;48.108;11.448;2022-11-09T02:21:15;5.50;99.90
19813;DHT22;10066;48.108;11.448;2022-11-09T02:23:42;5.40;99.90
19813;DHT22;10066;48.108;11.448;2022-11-09T02:26:12;5.40;99.90
19813;DHT22;10066;48.108;11.448;2022-11-09T02:28:41;5.40;99.90
19813;DHT22;10066;48.108;11.448;2022-11-09T02:31:11;5.40;99.90
19813;DHT22;10066;48.108;11.448;2022-11-09T02:33:43;5.40;99.90
19813;DHT22;10066;48.108;11.448;2022-11-09T02:36:09;5.40;99.90
19813;DHT22;10066;48.108;11.448;2022-11-09T02:38:38;5.40;99.90
19813;DHT22;10066;48.108;11.448;2022-11-09T02:41:06;5.30;99.90
19813;DHT22;10066;48.108;11.448;2022-11-09T02:43:34;5.30;99.90
19813;DHT22;10066;48.108;11.448;2022-11-09T02:46:02;5.30;99.90
19813;DHT22;10066;48.108;11.448;2022-11-09T02:48:29;5.30;99.90
19813;DHT22;10066;48.108;11.448;2022-11-09T02:50:57;5.20;99.90
19813;DHT22;10066;48.108;11.448;2022-11-09T02:53:24;5.20;99.90
19813;DHT22;10066;48.108;11.448;2022-11-09T02:55:52;5.20;99.90
19813;DHT22;10066;48.108;11.448;2022-11-09T02:58:20;5.20;99.90
19813;DHT22;10066;48.108;11.448;2022-11-09T03:00:48;5.20;99.90
19813;DHT22;10066;48.108;11.448;2022-11-09T03:03:16;5.10;99.90
19813;DHT22;10066;48.108;11.448;2022-11-09T03:05:43;5.10;99.90
19813;DHT22;10066;48.108;11.448;2022-11-09T03:08:10;5.10;99.90
19813;DHT22;10066;48.108;11.448;2022-11-09T03:10:37;5.10;99.90
19813;DHT22;10066;48.108;11.448;2022-11-09T03:13:06;5.10;99.90
19813;DHT22;10066;48.108;11.448;2022-11-09T03:15:32;5.10;99.90
19813;DHT22;10066;48.108;11.448;2022-11-09T03:18:00;5.10;99.90
19813;DHT22;10066;48.108;11.448;2022-11-09T03:20:27;5.10;99.90
19813;DHT22;10066;48.108;11.448;2022-11-09T03:22:56;5.10;99.90
19813;DHT22;10066;48.108;11.448;2022-11-09T03:25:24;5.10;99.90
19813;DHT22;10066;48.108;11.448;2022-11-09T03:27:56;5.10;99.90
19813;DHT22;10066;48.108;11.448;2022-11-09T03:30:24;5.10;99.90
19813;DHT22;10066;48.108;11.448;2022-11-09T03:32:56;5.10;99.90
19813;DHT22;10066;48.108;11.448;2022-11-09T03:35:23;5.10;99.90
19813;DHT22;10066;48.108;11.448;2022-11-09T03:37:51;5.10;99.90
19813;DHT22;10066;48.108;11.448;2022-11-09T03:40:18;5.10;99.90
19813;DHT22;10066;48.108;11.448;2022-11-09T03:42:46;5.10;99.90
19813;DHT22;10066;48.108;11.448;2022-11-09T03:45:14;5.10;99.90
19813;DHT22;10066;48.108;11.448;2022-11-09T03:47:43;5.10;99.90
19813;DHT22;10066;48.108;11.448;2022-11-09T03:50:12;5.10;99.90
19813;DHT22;10066;48.108;11.448;2022-11-09T03:52:39;5.10;99.90
19813;DHT22;10066;48.108;11.448;2022-11-09T03:55:07;5.10;99.90
19813;DHT22;10066;48.108;11.448;2022-11-09T03:57:33;5.10;99.90
19813;DHT22;10066;48.108;11.448;2022-11-09T04:00:01;5.20;99.90
19813;DHT22;10066;48.108;11.448;2022-11-09T04:02:27;5.10;99.90
19813;DHT22;10066;48.108;11.448;2022-11-09T04:04:56;5.20;99.90
19813;DHT22;10066;48.108;11.448;2022-11-09T04:07:23;5.20;99.90
19813;DHT22;10066;48.108;11.448;2022-11-09T04:09:50;5.20;99.90
19813;DHT22;10066;48.108;11.448;2022-11-09T04:12:17;5.20;99.90
19813;DHT22;10066;48.108;11.448;2022-11-09T04:14:44;5.20;99.90
19813;DHT22;10066;48.108;11.448;2022-11-09T04:17:10;5.20;99.90
19813;DHT22;10066;48.108;11.448;2022-11-09T04:19:37;5.20;99.90
19813;DHT22;10066;48.108;11.448;2022-11-09T04:22:06;5.20;99.90
19813;DHT22;10066;48.108;11.448;2022-11-09T04:24:32;5.20;99.90
19813;DHT22;10066;48.108;11.448;2022-11-09T04:26:59;5.30;99.90
19813;DHT22;10066;48.108;11.448;2022-11-09T04:29:26;5.20;99.90
19813;DHT22;10066;48.108;11.448;2022-11-09T04:31:53;5.30;99.90
19813;DHT22;10066;48.108;11.448;2022-11-09T04:34:20;5.30;99.90
19813;DHT22;10066;48.108;11.448;2022-11-09T04:36:47;5.30;99.90
19813;DHT22;10066;48.108;11.448;2022-11-09T04:39:15;5.30;99.90
19813;DHT22;10066;48.108;11.448;2022-11-09T04:41:42;5.30;99.90
19813;DHT22;10066;48.108;11.448;2022-11-09T04:44:09;5.40;99.90
19813;DHT22;10066;48.108;11.448;2022-11-09T04:46:36;5.40;99.90
19813;DHT22;10066;48.108;11.448;2022-11-09T04:49:03;5.40;99.90
19813;DHT22;10066;48.108;11.448;2022-11-09T04:51:30;5.40;99.90
19813;DHT22;10066;48.108;11.448;2022-11-09T04:53:56;5.40;99.90
19813;DHT22;10066;48.108;11.448;2022-11-09T04:56:25;5.40;99.90
19813;DHT22;10066;48.108;11.448;2022-11-09T04:58:52;5.50;99.90
19813;DHT22;10066;48.108;11.448;2022-11-09T05:01:19;5.50;99.90
19813;DHT22;10066;48.108;11.448;2022-11-09T05:03:46;5.50;99.90
19813;DHT22;10066;48.108;11.448;2022-11-09T05:06:13;5.50;99.90
19813;DHT22;10066;48.108;11.448;2022-11-09T05:08:59;5.50;99.90
19813;DHT22;10066;48.108;11.448;2022-11-09T05:11:28;5.40;99.90
19813;DHT22;10066;48.108;11.448;2022-11-09T05:13:55;5.40;99.90
19813;DHT22;10066;48.108;11.448;2022-11-09T05:16:22;5.40;99.90
19813;DHT22;10066;48.108;11.448;2022-11-09T05:18:50;5.40;99.90
19813;DHT22;10066;48.108;11.448;2022-11-09T05:21:17;5.40;99.90
19813;DHT22;10066;48.108;11.448;2022-11-09T05:23:45;5.40;99.90
19813;DHT22;10066;48.108;11.448;2022-11-09T05:26:23;5.40;99.90
19813;DHT22;10066;48.108;11.448;2022-11-09T05:28:53;5.40;99.90
19813;DHT22;10066;48.108;11.448;2022-11-09T05:31:22;5.40;99.90
19813;DHT22;10066;48.108;11.448;2022-11-09T05:33:49;5.40;99.90
19813;DHT22;10066;48.108;11.448;2022-11-09T05:36:17;5.30;99.90
19813;DHT22;10066;48.108;11.448;2022-11-09T05:38:44;5.30;99.90
19813;DHT22;10066;48.108;11.448;2022-11-09T05:41:11;5.30;99.90
19813;DHT22;10066;48.108;11.448;2022-11-09T05:43:38;5.30;99.90
19813;DHT22;10066;48.108;11.448;2022-11-09T05:46:07;5.30;99.90
19813;DHT22;10066;48.108;11.448;2022-11-09T05:48:34;5.30;99.90
19813;DHT22;10066;48.108;11.448;2022-11-09T05:51:02;5.20;99.90
19813;DHT22;10066;48.108;11.448;2022-11-09T05:53:30;5.20;99.90
19813;DHT22;10066;48.108;11.448;2022-11-09T05:56:01;5.20;99.90
19813;DHT22;10066;48.108;11.448;2022-11-09T05:58:29;5.20;99.90
19813;DHT22;10066;48.108;11.448;2022-11-09T06:00:57;5.20;99.90
19813;DHT22;10066;48.108;11.448;2022-11-09T06:03:27;5.20;99.90
19813;DHT22;10066;48.108;11.448;2022-11-09T06:05:53;5.20;99.90
19813;DHT22;10066;48.108;11.448;2022-11-09T06:08:24;5.30;99.90
19813;DHT22;10066;48.108;11.448;2022-11-09T06:10:56;5.30;99.90
19813;DHT22;10066;48.108;11.448;2022-11-09T06:13:23;5.40;99.90
19813;DHT22;10066;48.108;11.448;2022-11-09T06:15:52;5.40;99.90
19813;DHT22;10066;48.108;11.448;2022-11-09T06:18:19;5.50;99.90
19813;DHT22;10066;48.108;11.448;2022-11-09T06:20:50;5.60;99.90
19813;DHT22;10066;48.108;11.448;2022-11-09T06:23:17;5.80;99.90
19813;DHT22;10066;48.108;11.448;2022-11-09T06:25:44;5.90;99.90
19813;DHT22;10066;48.108;11.448;2022-11-09T06:28:13;6.20;99.90
19813;DHT22;10066;48.108;11.448;2022-11-09T06:30:40;6.30;99.90
19813;DHT22;10066;48.108;11.448;2022-11-09T06:33:06;6.40;99.90
19813;DHT22;10066;48.108;11.448;2022-11-09T06:35:33;6.60;99.90
19813;DHT22;10066;48.108;11.448;2022-11-09T06:38:02;6.70;99.90
19813;DHT22;10066;48.108;11.448;2022-11-09T06:40:29;6.80;99.90
19813;DHT22;10066;48.108;11.448;2022-11-09T06:42:57;6.90;99.90
19813;DHT22;10066;48.108;11.448;2022-11-09T06:45:26;6.90;99.90
19813;DHT22;10066;48.108;11.448;2022-11-09T06:47:54;7.00;99.90
19813;DHT22;10066;48.108;11.448;2022-11-09T06:50:21;7.00;99.90
19813;DHT22;10066;48.108;11.448;2022-11-09T06:52:49;7.10;99.90
19813;DHT22;10066;48.108;11.448;2022-11-09T06:55:17;7.20;99.90
19813;DHT22;10066;48.108;11.448;2022-11-09T06:57:44;7.30;99.90
19813;DHT22;10066;48.108;11.448;2022-11-09T07:00:13;7.40;99.90
19813;DHT22;10066;48.108;11.448;2022-11-09T07:02:41;7.60;99.90
19813;DHT22;10066;48.108;11.448;2022-11-09T07:05:08;7.70;99.90
19813;DHT22;10066;48.108;11.448;2022-11-09T07:07:35;7.90;99.90
19813;DHT22;10066;48.108;11.448;2022-11-09T07:10:03;8.10;99.90
19813;DHT22;10066;48.108;11.448;2022-11-09T07:12:34;8.20;99.90
19813;DHT22;10066;48.108;11.448;2022-11-09T07:15:01;8.40;99.90
19813;DHT22;10066;48.108;11.448;2022-11-09T07:17:29;8.60;99.90
19813;DHT22;10066;48.108;11.448;2022-11-09T07:19:56;8.70;99.90
19813;DHT22;10066;48.108;11.448;2022-11-09T07:22:23;8.80;99.90
19813;DHT22;10066;48.108;11.448;2022-11-09T07:24:50;9.00;99.90
19813;DHT22;10066;48.108;11.448;2022-11-09T07:27:17;9.10;99.90
19813;DHT22;10066;48.108;11.448;2022-11-09T07:29:46;9.10;99.90
19813;DHT22;10066;48.108;11.448;2022-11-09T07:32:13;9.20;99.90
19813;DHT22;10066;48.108;11.448;2022-11-09T07:34:40;9.20;99.90
19813;DHT22;10066;48.108;11.448;2022-11-09T07:37:07;9.20;99.90
19813;DHT22;10066;48.108;11.448;2022-11-09T07:39:34;9.20;99.90
19813;DHT22;10066;48.108;11.448;2022-11-09T07:42:00;9.20;99.90
19813;DHT22;10066;48.108;11.448;2022-11-09T07:44:27;9.20;99.90
19813;DHT22;10066;48.108;11.448;2022-11-09T07:46:56;9.20;99.90
19813;DHT22;10066;48.108;11.448;2022-11-09T07:49:22;9.20;99.90
19813;DHT22;10066;48.108;11.448;2022-11-09T07:51:49;9.20;99.90
19813;DHT22;10066;48.108;11.448;2022-11-09T07:54:17;9.20;99.90
19813;DHT22;10066;48.108;11.448;2022-11-09T07:56:43;9.20;99.90
19813;DHT22;10066;48.108;11.448;2022-11-09T07:59:11;9.20;99.90
19813;DHT22;10066;48.108;11.448;2022-11-09T08:01:38;9.20;99.90
19813;DHT22;10066;48.108;11.448;2022-11-09T08:04:06;9.30;99.90
19813;DHT22;10066;48.108;11.448;2022-11-09T08:06:33;9.30;99.90
19813;DHT22;10066;48.108;11.448;2022-11-09T08:09:00;9.30;99.90
19813;DHT22;10066;48.108;11.448;2022-11-09T08:11:27;9.30;99.90
19813;DHT22;10066;48.108;11.448;2022-11-09T08:13:54;9.40;99.90
19813;DHT22;10066;48.108;11.448;2022-11-09T08:16:21;9.40;99.90
19813;DHT22;10066;48.108;11.448;2022-11-09T08:18:49;9.40;99.90
19813;DHT22;10066;48.108;11.448;2022-11-09T08:21:17;9.50;99.90
19813;DHT22;10066;48.108;11.448;2022-11-09T08:23:44;9.60;99.90
19813;DHT22;10066;48.108;11.448;2022-11-09T08:26:11;9.80;99.90
19813;DHT22;10066;48.108;11.448;2022-11-09T08:28:38;9.90;99.90
19813;DHT22;10066;48.108;11.448;2022-11-09T08:31:06;10.10;99.90
19813;DHT22;10066;48.108;11.448;2022-11-09T08:33:35;10.30;99.90
19813;DHT22;10066;48.108;11.448;2022-11-09T08:36:08;10.50;99.90
19813;DHT22;10066;48.108;11.448;2022-11-09T08:38:36;10.70;99.90
19813;DHT22;10066;48.108;11.448;2022-11-09T08:43:31;11.10;99.90
19813;DHT22;10066;48.108;11.448;2022-11-09T08:45:58;11.30;99.90
19813;DHT22;10066;48.108;11.448;2022-11-09T08:48:25;11.40;99.90
19813;DHT22;10066;48.108;11.448;2022-11-09T08:50:52;11.60;99.90
19813;DHT22;10066;48.108;11.448;2022-11-09T08:53:19;11.80;99.90
19813;DHT22;10066;48.108;11.448;2022-11-09T08:55:48;11.90;99.90
19813;DHT22;10066;48.108;11.448;2022-11-09T08:58:15;12.10;99.90
19813;DHT22;10066;48.108;11.448;2022-11-09T09:00:42;12.20;99.90
19813;DHT22;10066;48.108;11.448;2022-11-09T09:03:09;12.30;99.90
19813;DHT22;10066;48.108;11.448;2022-11-09T09:05:36;12.40;99.90
19813;DHT22;10066;48.108;11.448;2022-11-09T09:08:04;12.50;99.90
19813;DHT22;10066;48.108;11.448;2022-11-09T09:10:32;12.60;99.90
19813;DHT22;10066;48.108;11.448;2022-11-09T09:13:02;12.70;99.90
19813;DHT22;10066;48.108;11.448;2022-11-09T09:15:29;12.70;99.90
19813;DHT22;10066;48.108;11.448;2022-11-09T09:17:58;12.80;99.90
19813;DHT22;10066;48.108;11.448;2022-11-09T09:20:25;12.90;99.90
19813;DHT22;10066;48.108;11.448;2022-11-09T09:22:53;12.90;99.90
19813;DHT22;10066;48.108;11.448;2022-11-09T09:25:20;13.00;99.90
19813;DHT22;10066;48.108;11.448;2022-11-09T09:27:47;13.00;99.90
19813;DHT22;10066;48.108;11.448;2022-11-09T09:30:15;13.10;99.90
19813;DHT22;10066;48.108;11.448;2022-11-09T09:32:42;13.20;99.90
19813;DHT22;10066;48.108;11.448;2022-11-09T09:35:09;13.30;99.90
19813;DHT22;10066;48.108;11.448;2022-11-09T09:40:05;13.50;99.90
19813;DHT22;10066;48.108;11.448;2022-11-09T09:42:35;13.50;99.90
19813;DHT22;10066;48.108;11.448;2022-11-09T09:45:06;13.70;99.90
19813;DHT22;10066;48.108;11.448;2022-11-09T09:47:44;13.80;99.90
19813;DHT22;10066;48.108;11.448;2022-11-09T09:50:14;13.90;99.90
19813;DHT22;10066;48.108;11.448;2022-11-09T09:52:46;14.00;99.90
19813;DHT22;10066;48.108;11.448;2022-11-09T09:55:18;14.10;99.90
19813;DHT22;10066;48.108;11.448;2022-11-09T09:57:52;14.10;99.90
19813;DHT22;10066;48.108;11.448;2022-11-09T10:00:22;14.20;99.90
19813;DHT22;10066;48.108;11.448;2022-11-09T10:02:51;14.30;99.90
19813;DHT22;10066;48.108;11.448;2022-11-09T10:05:19;14.40;99.90
19813;DHT22;10066;48.108;11.448;2022-11-09T10:07:58;14.40;99.90
19813;DHT22;10066;48.108;11.448;2022-11-09T10:10:41;14.50;99.90
19813;DHT22;10066;48.108;11.448;2022-11-09T10:13:25;14.60;99.90
19813;DHT22;10066;48.108;11.448;2022-11-09T10:16:00;14.70;99.90
19813;DHT22;10066;48.108;11.448;2022-11-09T10:18:40;14.70;99.90
19813;DHT22;10066;48.108;11.448;2022-11-09T10:21:15;14.80;99.90
19813;DHT22;10066;48.108;11.448;2022-11-09T10:23:55;14.90;99.90
19813;DHT22;10066;48.108;11.448;2022-11-09T10:26:31;14.90;99.90
19813;DHT22;10066;48.108;11.448;2022-11-09T10:29:01;15.00;99.90
19813;DHT22;10066;48.108;11.448;2022-11-09T10:31:38;15.10;99.90
19813;DHT22;10066;48.108;11.448;2022-11-09T10:34:16;15.20;99.90
19813;DHT22;10066;48.108;11.448;2022-11-09T10:36:48;15.20;99.90
19813;DHT22;10066;48.108;11.448;2022-11-09T10:39:17;15.30;99.90
19813;DHT22;10066;48.108;11.448;2022-11-09T10:41:44;15.40;99.90
19813;DHT22;10066;48.108;11.448;2022-11-09T10:44:13;15.40;99.90
19813;DHT22;10066;48.108;11.448;2022-11-09T10:47:02;15.50;99.90
19813;DHT22;10066;48.108;11.448;2022-11-09T10:49:31;15.50;99.90
19813;DHT22;10066;48.108;11.448;2022-11-09T10:51:59;15.60;99.90
19813;DHT22;10066;48.108;11.448;2022-11-09T10:54:27;15.70;99.90
19813;DHT22;10066;48.108;11.448;2022-11-09T10:57:09;15.70;99.90
19813;DHT22;10066;48.108;11.448;2022-11-09T10:59:47;15.70;99.90
19813;DHT22;10066;48.108;11.448;2022-11-09T11:02:45;15.70;99.90
19813;DHT22;10066;48.108;11.448;2022-11-09T11:05:26;15.60;99.90
19813;DHT22;10066;48.108;11.448;2022-11-09T11:07:54;15.60;99.90
19813;DHT22;10066;48.108;11.448;2022-11-09T11:10:21;15.50;99.90
19813;DHT22;10066;48.108;11.448;2022-11-09T11:15:39;15.50;99.90
19813;DHT22;10066;48.108;11.448;2022-11-09T11:18:15;15.50;99.90
19813;DHT22;10066;48.108;11.448;2022-11-09T11:20:45;15.40;99.90
19813;DHT22;10066;48.108;11.448;2022-11-09T11:23:14;15.50;99.90
19813;DHT22;10066;48.108;11.448;2022-11-09T11:26:01;15.50;99.90
19813;DHT22;10066;48.108;11.448;2022-11-09T11:28:38;15.50;99.90
19813;DHT22;10066;48.108;11.448;2022-11-09T11:31:10;15.60;99.90
19813;DHT22;10066;48.108;11.448;2022-11-09T11:33:38;15.60;99.90
19813;DHT22;10066;48.108;11.448;2022-11-09T11:36:15;15.60;99.90
19813;DHT22;10066;48.108;11.448;2022-11-09T11:38:50;15.70;99.90
19813;DHT22;10066;48.108;11.448;2022-11-09T11:41:37;15.70;99.90
19813;DHT22;10066;48.108;11.448;2022-11-09T11:44:16;15.80;99.90
19813;DHT22;10066;48.108;11.448;2022-11-09T11:46:46;15.80;99.90
19813;DHT22;10066;48.108;11.448;2022-11-09T11:49:41;15.90;99.90
19813;DHT22;10066;48.108;11.448;2022-11-09T11:52:18;15.90;99.90
19813;DHT22;10066;48.108;11.448;2022-11-09T11:55:12;16.00;99.90
19813;DHT22;10066;48.108;11.448;2022-11-09T11:57:52;16.00;99.90
19813;DHT22;10066;48.108;11.448;2022-11-09T12:00:23;16.10;99.90
19813;DHT22;10066;48.108;11.448;2022-11-09T12:06:07;16.30;99.90
19813;DHT22;10066;48.108;11.448;2022-11-09T12:08:47;16.30;99.90
19813;DHT22;10066;48.108;11.448;2022-11-09T12:11:23;16.40;99.90
19813;DHT22;10066;48.108;11.448;2022-11-09T12:13:59;16.40;99.90
19813;DHT22;10066;48.108;11.448;2022-11-09T12:16:34;16.40;99.90
19813;DHT22;10066;48.108;11.448;2022-11-09T12:19:21;16.50;99.90
19813;DHT22;10066;48.108;11.448;2022-11-09T12:21:58;16.50;99.90
19813;DHT22;10066;48.108;11.448;2022-11-09T12:24:32;16.60;99.90
19813;DHT22;10066;48.108;11.448;2022-11-09T12:27:27;16.60;99.90
19813;DHT22;10066;48.108;11.448;2022-11-09T12:30:04;16.70;99.90
19813;DHT22;10066;48.108;11.448;2022-11-09T12:32:40;16.70;99.90
19813;DHT22;10066;48.108;11.448;2022-11-09T12:35:19;16.80;99.90
19813;DHT22;10066;48.108;11.448;2022-11-09T12:37:52;16.80;99.90
19813;DHT22;10066;48.108;11.448;2022-11-09T12:40:24;16.90;99.90
19813;DHT22;10066;48.108;11.448;2022-11-09T12:42:57;16.90;99.90
19813;DHT22;10066;48.108;11.448;2022-11-09T12:45:28;16.90;99.90
19813;DHT22;10066;48.108;11.448;2022-11-09T12:47:59;16.90;99.90
19813;DHT22;10066;48.108;11.448;2022-11-09T12:50:27;16.90;99.90
19813;DHT22;10066;48.108;11.448;2022-11-09T12:52:55;16.90;99.90
19813;DHT22;10066;48.108;11.448;2022-11-09T12:55:28;16.80;99.90
19813;DHT22;10066;48.108;11.448;2022-11-09T12:57:58;16.70;99.90
19813;DHT22;10066;48.108;11.448;2022-11-09T13:00:47;16.70;99.90
19813;DHT22;10066;48.108;11.448;2022-11-09T13:03:20;16.60;99.90
19813;DHT22;10066;48.108;11.448;2022-11-09T13:05:48;16.60;99.90
19813;DHT22;10066;48.108;11.448;2022-11-09T13:08:34;16.50;99.90
19813;DHT22;10066;48.108;11.448;2022-11-09T13:11:17;16.60;99.90
19813;DHT22;10066;48.108;11.448;2022-11-09T13:13:45;16.60;99.90
19813;DHT22;10066;48.108;11.448;2022-11-09T13:16:31;16.60;99.90
19813;DHT22;10066;48.108;11.448;2022-11-09T13:18:58;16.60;99.90
19813;DHT22;10066;48.108;11.448;2022-11-09T13:21:36;16.60;99.90
19813;DHT22;10066;48.108;11.448;2022-11-09T13:27:35;16.60;99.90
19813;DHT22;10066;48.108;11.448;2022-11-09T13:30:35;16.60;99.90
19813;DHT22;10066;48.108;11.448;2022-11-09T13:33:17;16.70;99.90
19813;DHT22;10066;48.108;11.448;2022-11-09T13:36:16;16.70;99.90
19813;DHT22;10066;48.108;11.448;2022-11-09T13:38:44;16.70;99.90
19813;DHT22;10066;48.108;11.448;2022-11-09T13:41:40;16.70;99.90
19813;DHT22;10066;48.108;11.448;2022-11-09T13:44:20;16.70;99.90
19813;DHT22;10066;48.108;11.448;2022-11-09T13:46:48;16.80;99.90
19813;DHT22;10066;48.108;11.448;2022-11-09T13:49:40;16.80;99.90
19813;DHT22;10066;48.108;11.448;2022-11-09T13:52:40;16.80;99.90
19813;DHT22;10066;48.108;11.448;2022-11-09T13:55:34;16.80;99.90
19813;DHT22;10066;48.108;11.448;2022-11-09T13:58:10;16.80;99.90
19813;DHT22;10066;48.108;11.448;2022-11-09T14:00:44;16.80;99.90
19813;DHT22;10066;48.108;11.448;2022-11-09T14:03:18;16.80;99.90
19813;DHT22;10066;48.108;11.448;2022-11-09T14:05:49;16.80;99.90
19813;DHT22;10066;48.108;11.448;2022-11-09T14:08:21;16.70;99.90
19813;DHT22;10066;48.108;11.448;2022-11-09T14:14:04;16.70;99.90
19813;DHT22;10066;48.108;11.448;2022-11-09T14:16:40;16.60;99.90
19813;DHT22;10066;48.108;11.448;2022-11-09T14:19:17;16.60;99.90
19813;DHT22;10066;48.108;11.448;2022-11-09T14:21:49;16.60;99.90
19813;DHT22;10066;48.108;11.448;2022-11-09T14:24:18;16.60;99.90
19813;DHT22;10066;48.108;11.448;2022-11-09T14:26:59;16.60;99.90
19813;DHT22;10066;48.108;11.448;2022-11-09T14:29:26;16.60;99.90
19813;DHT22;10066;48.108;11.448;2022-11-09T14:31:58;16.50;99.90
19813;DHT22;10066;48.108;11.448;2022-11-09T14:34:26;16.50;99.90
19813;DHT22;10066;48.108;11.448;2022-11-09T14:36:55;16.40;99.90
19813;DHT22;10066;48.108;11.448;2022-11-09T14:39:25;16.40;99.90
19813;DHT22;10066;48.108;11.448;2022-11-09T14:41:54;16.30;99.90
19813;DHT22;10066;48.108;11.448;2022-11-09T14:44:25;16.30;99.90
19813;DHT22;10066;48.108;11.448;2022-11-09T14:46:54;16.20;99.90
19813;DHT22;10066;48.108;11.448;2022-11-09T14:49:21;16.10;99.90
19813;DHT22;10066;48.108;11.448;2022-11-09T14:51:49;16.10;99.90
19813;DHT22;10066;48.108;11.448;2022-11-09T14:54:20;16.00;99.90
19813;DHT22;10066;48.108;11.448;2022-11-09T14:56:49;16.00;99.90
19813;DHT22;10066;48.108;11.448;2022-11-09T14:59:18;15.90;99.90
19813;DHT22;10066;48.108;11.448;2022-11-09T15:01:59;15.90;99.90
19813;DHT22;10066;48.108;11.448;2022-11-09T15:04:26;15.80;99.90
19813;DHT22;10066;48.108;11.448;2022-11-09T15:06:55;15.70;99.90
19813;DHT22;10066;48.108;11.448;2022-11-09T15:09:31;15.70;99.90
19813;DHT22;10066;48.108;11.448;2022-11-09T15:11:58;15.60;99.90
19813;DHT22;10066;48.108;11.448;2022-11-09T15:14:28;15.60;99.90
19813;DHT22;10066;48.108;11.448;2022-11-09T15:17:01;15.50;99.90
19813;DHT22;10066;48.108;11.448;2022-11-09T15:19:32;15.50;99.90
19813;DHT22;10066;48.108;11.448;2022-11-09T15:22:00;15.40;99.90
19813;DHT22;10066;48.108;11.448;2022-11-09T15:24:29;15.30;99.90
19813;DHT22;10066;48.108;11.448;2022-11-09T15:27:28;15.30;99.90
19813;DHT22;10066;48.108;11.448;2022-11-09T15:29:55;15.20;99.90
19813;DHT22;10066;48.108;11.448;2022-11-09T15:32:23;15.20;99.90
19813;DHT22;10066;48.108;11.448;2022-11-09T15:34:55;15.20;99.90
19813;DHT22;10066;48.108;11.448;2022-11-09T15:37:26;15.10;99.90
19813;DHT22;10066;48.108;11.448;2022-11-09T15:39:56;15.10;99.90
19813;DHT22;10066;48.108;11.448;2022-11-09T15:42:24;15.00;99.90
19813;DHT22;10066;48.108;11.448;2022-11-09T15:44:52;15.00;99.90
19813;DHT22;10066;48.108;11.448;2022-11-09T15:47:23;14.90;99.90
19813;DHT22;10066;48.108;11.448;2022-11-09T15:49:52;14.90;99.90
19813;DHT22;10066;48.108;11.448;2022-11-09T15:52:19;14.80;99.90
19813;DHT22;10066;48.108;11.448;2022-11-09T15:54:46;14.80;99.90
19813;DHT22;10066;48.108;11.448;2022-11-09T15:57:16;14.70;99.90
19813;DHT22;10066;48.108;11.448;2022-11-09T15:59:45;14.70;99.90
19813;DHT22;10066;48.108;11.448;2022-11-09T16:02:12;14.60;99.90